sensor_id;sensor_type;location;lat;lon;timestamp;temperature;humidity
52575;DHT22;38468;48.114;-1.684;2023-09-19T00:00:21;15.50;80.80
52575;DHT22;38468;48.114;-1.684;2023-09-19T00:02:22;15.60;80.90
52575;DHT22;38468;48.114;-1.684;2023-09-19T00:04:23;15.50;80.70
52575;DHT22;38468;48.114;-1.684;2023-09-19T00:06:30;15.50;80.80
52575;DHT22;38468;48.114;-1.684;2023-09-19T00:08:31;15.50;81.10
52575;DHT22;38468;48.114;-1.684;2023-09-19T00:10:34;15.70;80.70
52575;DHT22;38468;48.114;-1.684;2023-09-19T00:12:35;15.50;81.00
52575;DHT22;38468;48.114;-1.684;2023-09-19T00:14:36;15.60;81.20
52575;DHT22;38468;48.114;-1.684;2023-09-19T00:16:37;15.70;80.70
52575;DHT22;38468;48.114;-1.684;2023-09-19T00:18:38;15.70;80.60
52575;DHT22;38468;48.114;-1.684;2023-09-19T00:20:39;15.80;80.30
52575;DHT22;38468;48.114;-1.684;2023-09-19T00:22:40;15.90;80.10
52575;DHT22;38468;48.114;-1.684;2023-09-19T00:24:42;15.90;79.80
52575;DHT22;38468;48.114;-1.684;2023-09-19T00:26:43;15.80;80.00
52575;DHT22;38468;48.114;-1.684;2023-09-19T00:28:44;15.70;80.40
52575;DHT22;38468;48.114;-1.684;2023-09-19T00:30:45;15.70;80.30
52575;DHT22;38468;48.114;-1.684;2023-09-19T00:32:51;15.60;80.60
52575;DHT22;38468;48.114;-1.684;2023-09-19T00:34:54;15.60;80.50
52575;DHT22;38468;48.114;-1.684;2023-09-19T00:36:56;15.50;80.80
52575;DHT22;38468;48.114;-1.684;2023-09-19T00:38:57;15.50;80.50
52575;DHT22;38468;48.114;-1.684;2023-09-19T00:40:57;15.40;80.90
52575;DHT22;38468;48.114;-1.684;2023-09-19T00:43:00;15.40;81.10
52575;DHT22;38468;48.114;-1.684;2023-09-19T00:45:00;15.40;81.00
52575;DHT22;38468;48.114;-1.684;2023-09-19T00:47:03;15.50;80.90
52575;DHT22;38468;48.114;-1.684;2023-09-19T00:49:04;15.50;80.70
52575;DHT22;38468;48.114;-1.684;2023-09-19T00:51:05;15.50;80.80
52575;DHT22;38468;48.114;-1.684;2023-09-19T00:53:05;15.30;81.20
52575;DHT22;38468;48.114;-1.684;2023-09-19T00:55:10;15.40;81.40
52575;DHT22;38468;48.114;-1.684;2023-09-19T00:57:11;15.40;81.10
52575;DHT22;38468;48.114;-1.684;2023-09-19T00:59:12;15.50;81.00
52575;DHT22;38468;48.114;-1.684;2023-09-19T01:01:13;15.50;81.00
52575;DHT22;38468;48.114;-1.684;2023-09-19T01:03:15;15.30;81.20
52575;DHT22;38468;48.114;-1.684;2023-09-19T01:05:15;15.40;81.00
52575;DHT22;38468;48.114;-1.684;2023-09-19T01:07:17;15.50;81.00
52575;DHT22;38468;48.114;-1.684;2023-09-19T01:09:19;15.40;80.90
52575;DHT22;38468;48.114;-1.684;2023-09-19T01:14:15;15.50;80.60
52575;DHT22;38468;48.114;-1.684;2023-09-19T01:16:40;15.50;80.50
52575;DHT22;38468;48.114;-1.684;2023-09-19T01:29:42;15.20;80.80
52575;DHT22;38468;48.114;-1.684;2023-09-19T01:31:45;15.30;80.90
52575;DHT22;38468;48.114;-1.684;2023-09-19T01:33:55;15.30;80.80
52575;DHT22;38468;48.114;-1.684;2023-09-19T01:35:59;15.30;80.80
52575;DHT22;38468;48.114;-1.684;2023-09-19T01:38:00;15.20;80.80
52575;DHT22;38468;48.114;-1.684;2023-09-19T01:40:09;15.10;81.20
52575;DHT22;38468;48.114;-1.684;2023-09-19T01:44:59;15.30;80.70
52575;DHT22;38468;48.114;-1.684;2023-09-19T01:47:13;15.20;80.80
52575;DHT22;38468;48.114;-1.684;2023-09-19T01:49:28;15.20;80.90
52575;DHT22;38468;48.114;-1.684;2023-09-19T01:53:55;15.30;80.50
52575;DHT22;38468;48.114;-1.684;2023-09-19T01:56:05;15.20;80.60
52575;DHT22;38468;48.114;-1.684;2023-09-19T01:58:14;15.30;80.40
52575;DHT22;38468;48.114;-1.684;2023-09-19T02:00:18;15.30;80.20
52575;DHT22;38468;48.114;-1.684;2023-09-19T02:02:23;15.30;80.10
52575;DHT22;38468;48.114;-1.684;2023-09-19T02:04:25;15.30;80.10
52575;DHT22;38468;48.114;-1.684;2023-09-19T02:06:27;15.30;80.00
52575;DHT22;38468;48.114;-1.684;2023-09-19T02:08:28;15.20;80.10
52575;DHT22;38468;48.114;-1.684;2023-09-19T02:10:31;15.00;80.60
52575;DHT22;38468;48.114;-1.684;2023-09-19T02:12:32;15.10;80.70
52575;DHT22;38468;48.114;-1.684;2023-09-19T02:14:35;15.20;80.40
52575;DHT22;38468;48.114;-1.684;2023-09-19T02:16:36;15.10;80.60
52575;DHT22;38468;48.114;-1.684;2023-09-19T02:18:38;15.10;80.50
52575;DHT22;38468;48.114;-1.684;2023-09-19T02:20:39;15.20;80.40
52575;DHT22;38468;48.114;-1.684;2023-09-19T02:22:41;15.20;80.30
52575;DHT22;38468;48.114;-1.684;2023-09-19T02:24:42;15.20;80.30
52575;DHT22;38468;48.114;-1.684;2023-09-19T02:26:43;15.20;80.00
52575;DHT22;38468;48.114;-1.684;2023-09-19T02:28:44;15.20;80.10
52575;DHT22;38468;48.114;-1.684;2023-09-19T02:30:49;15.30;79.80
52575;DHT22;38468;48.114;-1.684;2023-09-19T02:32:50;15.30;79.80
52575;DHT22;38468;48.114;-1.684;2023-09-19T02:34:51;15.30;79.90
52575;DHT22;38468;48.114;-1.684;2023-09-19T02:36:52;15.20;80.00
52575;DHT22;38468;48.114;-1.684;2023-09-19T02:38:55;15.00;80.30
52575;DHT22;38468;48.114;-1.684;2023-09-19T02:40:56;15.00;80.50
52575;DHT22;38468;48.114;-1.684;2023-09-19T02:42:57;14.90;80.90
52575;DHT22;38468;48.114;-1.684;2023-09-19T02:44:59;14.90;81.10
52575;DHT22;38468;48.114;-1.684;2023-09-19T02:47:00;15.00;80.90
52575;DHT22;38468;48.114;-1.684;2023-09-19T02:49:01;14.90;80.90
52575;DHT22;38468;48.114;-1.684;2023-09-19T02:51:05;15.00;80.80
52575;DHT22;38468;48.114;-1.684;2023-09-19T02:53:06;14.90;81.10
52575;DHT22;38468;48.114;-1.684;2023-09-19T02:55:07;15.00;81.00
52575;DHT22;38468;48.114;-1.684;2023-09-19T02:57:09;15.10;80.80
52575;DHT22;38468;48.114;-1.684;2023-09-19T02:59:10;15.10;80.60
52575;DHT22;38468;48.114;-1.684;2023-09-19T03:01:11;15.20;80.50
52575;DHT22;38468;48.114;-1.684;2023-09-19T03:03:12;15.20;80.30
52575;DHT22;38468;48.114;-1.684;2023-09-19T03:05:13;15.10;80.30
52575;DHT22;38468;48.114;-1.684;2023-09-19T03:07:14;15.20;80.40
52575;DHT22;38468;48.114;-1.684;2023-09-19T03:09:15;15.30;80.10
52575;DHT22;38468;48.114;-1.684;2023-09-19T03:11:16;15.00;80.20
52575;DHT22;38468;48.114;-1.684;2023-09-19T03:13:19;15.00;80.60
52575;DHT22;38468;48.114;-1.684;2023-09-19T03:15:20;15.10;80.50
52575;DHT22;38468;48.114;-1.684;2023-09-19T03:17:22;15.00;80.60
52575;DHT22;38468;48.114;-1.684;2023-09-19T03:19:22;15.00;80.90
52575;DHT22;38468;48.114;-1.684;2023-09-19T03:21:23;14.90;81.10
52575;DHT22;38468;48.114;-1.684;2023-09-19T03:23:25;14.90;81.10
52575;DHT22;38468;48.114;-1.684;2023-09-19T03:25:26;14.90;81.40
52575;DHT22;38468;48.114;-1.684;2023-09-19T03:27:28;14.90;81.30
52575;DHT22;38468;48.114;-1.684;2023-09-19T03:29:29;14.90;81.40
52575;DHT22;38468;48.114;-1.684;2023-09-19T03:31:29;14.90;81.30
52575;DHT22;38468;48.114;-1.684;2023-09-19T03:33:31;14.90;81.40
52575;DHT22;38468;48.114;-1.684;2023-09-19T03:35:34;14.90;81.20
52575;DHT22;38468;48.114;-1.684;2023-09-19T03:37:35;14.80;81.50
52575;DHT22;38468;48.114;-1.684;2023-09-19T03:39:36;14.90;81.50
52575;DHT22;38468;48.114;-1.684;2023-09-19T03:41:36;14.90;81.50
52575;DHT22;38468;48.114;-1.684;2023-09-19T03:43:37;14.90;81.20
52575;DHT22;38468;48.114;-1.684;2023-09-19T03:45:38;14.90;81.20
52575;DHT22;38468;48.114;-1.684;2023-09-19T03:47:39;14.90;81.10
52575;DHT22;38468;48.114;-1.684;2023-09-19T03:49:40;15.00;81.00
52575;DHT22;38468;48.114;-1.684;2023-09-19T03:51:41;15.00;81.20
52575;DHT22;38468;48.114;-1.684;2023-09-19T03:53:41;15.00;80.80
52575;DHT22;38468;48.114;-1.684;2023-09-19T03:55:44;15.00;80.90
52575;DHT22;38468;48.114;-1.684;2023-09-19T03:57:48;15.00;80.90
52575;DHT22;38468;48.114;-1.684;2023-09-19T03:59:49;15.10;80.80
52575;DHT22;38468;48.114;-1.684;2023-09-19T04:01:50;15.00;80.60
52575;DHT22;38468;48.114;-1.684;2023-09-19T04:03:56;15.00;80.90
52575;DHT22;38468;48.114;-1.684;2023-09-19T04:05:57;15.00;80.90
52575;DHT22;38468;48.114;-1.684;2023-09-19T04:07:57;15.00;80.80
52575;DHT22;38468;48.114;-1.684;2023-09-19T04:09:58;15.00;80.90
52575;DHT22;38468;48.114;-1.684;2023-09-19T04:11:58;15.00;80.90
52575;DHT22;38468;48.114;-1.684;2023-09-19T04:14:02;15.00;80.80
52575;DHT22;38468;48.114;-1.684;2023-09-19T04:16:03;15.00;81.10
52575;DHT22;38468;48.114;-1.684;2023-09-19T04:18:13;15.00;80.90
52575;DHT22;38468;48.114;-1.684;2023-09-19T04:20:14;15.10;80.70
52575;DHT22;38468;48.114;-1.684;2023-09-19T04:22:15;15.00;80.60
52575;DHT22;38468;48.114;-1.684;2023-09-19T04:24:15;15.00;80.90
52575;DHT22;38468;48.114;-1.684;2023-09-19T04:26:16;14.90;80.90
52575;DHT22;38468;48.114;-1.684;2023-09-19T04:28:17;15.00;81.00
52575;DHT22;38468;48.114;-1.684;2023-09-19T04:30:17;15.00;80.70
52575;DHT22;38468;48.114;-1.684;2023-09-19T04:32:18;14.90;81.00
52575;DHT22;38468;48.114;-1.684;2023-09-19T04:34:18;15.00;81.10
52575;DHT22;38468;48.114;-1.684;2023-09-19T04:36:19;15.00;81.00
52575;DHT22;38468;48.114;-1.684;2023-09-19T04:38:21;15.00;80.80
52575;DHT22;38468;48.114;-1.684;2023-09-19T04:40:22;14.90;81.20
52575;DHT22;38468;48.114;-1.684;2023-09-19T04:42:24;15.00;81.20
52575;DHT22;38468;48.114;-1.684;2023-09-19T04:44:25;14.90;81.20
52575;DHT22;38468;48.114;-1.684;2023-09-19T04:46:26;15.00;81.30
52575;DHT22;38468;48.114;-1.684;2023-09-19T04:48:27;15.00;81.00
52575;DHT22;38468;48.114;-1.684;2023-09-19T04:50:29;15.00;80.90
52575;DHT22;38468;48.114;-1.684;2023-09-19T04:52:30;15.00;80.90
52575;DHT22;38468;48.114;-1.684;2023-09-19T04:54:31;15.10;81.10
52575;DHT22;38468;48.114;-1.684;2023-09-19T04:56:32;15.10;80.70
52575;DHT22;38468;48.114;-1.684;2023-09-19T04:58:33;15.00;80.90
52575;DHT22;38468;48.114;-1.684;2023-09-19T05:00:34;15.00;81.10
52575;DHT22;38468;48.114;-1.684;2023-09-19T05:02:35;14.90;81.00
52575;DHT22;38468;48.114;-1.684;2023-09-19T05:04:36;15.00;81.40
52575;DHT22;38468;48.114;-1.684;2023-09-19T05:06:37;15.00;81.20
52575;DHT22;38468;48.114;-1.684;2023-09-19T05:08:38;15.00;81.00
52575;DHT22;38468;48.114;-1.684;2023-09-19T05:10:39;14.90;81.40
52575;DHT22;38468;48.114;-1.684;2023-09-19T05:12:40;14.90;81.40
52575;DHT22;38468;48.114;-1.684;2023-09-19T05:14:41;15.00;81.30
52575;DHT22;38468;48.114;-1.684;2023-09-19T05:16:42;15.10;81.20
52575;DHT22;38468;48.114;-1.684;2023-09-19T05:18:43;15.00;80.90
52575;DHT22;38468;48.114;-1.684;2023-09-19T05:20:43;14.90;81.10
52575;DHT22;38468;48.114;-1.684;2023-09-19T05:22:44;14.90;81.30
52575;DHT22;38468;48.114;-1.684;2023-09-19T05:24:46;14.90;81.10
52575;DHT22;38468;48.114;-1.684;2023-09-19T05:26:50;15.00;81.00
52575;DHT22;38468;48.114;-1.684;2023-09-19T05:28:50;15.00;80.80
52575;DHT22;38468;48.114;-1.684;2023-09-19T05:30:51;15.00;80.90
52575;DHT22;38468;48.114;-1.684;2023-09-19T05:32:53;15.00;80.70
52575;DHT22;38468;48.114;-1.684;2023-09-19T05:34:55;15.00;81.00
52575;DHT22;38468;48.114;-1.684;2023-09-19T05:36:56;15.00;81.00
52575;DHT22;38468;48.114;-1.684;2023-09-19T05:38:57;15.00;80.90
52575;DHT22;38468;48.114;-1.684;2023-09-19T05:40:58;15.00;80.90
52575;DHT22;38468;48.114;-1.684;2023-09-19T05:42:58;15.00;80.90
52575;DHT22;38468;48.114;-1.684;2023-09-19T05:44:59;15.00;80.90
52575;DHT22;38468;48.114;-1.684;2023-09-19T05:46:59;15.00;80.90
52575;DHT22;38468;48.114;-1.684;2023-09-19T05:49:00;15.00;81.20
52575;DHT22;38468;48.114;-1.684;2023-09-19T05:51:01;15.10;81.10
52575;DHT22;38468;48.114;-1.684;2023-09-19T05:53:01;15.10;81.00
52575;DHT22;38468;48.114;-1.684;2023-09-19T05:55:02;15.20;81.10
52575;DHT22;38468;48.114;-1.684;2023-09-19T05:57:05;15.20;80.90
52575;DHT22;38468;48.114;-1.684;2023-09-19T05:59:06;15.20;80.70
52575;DHT22;38468;48.114;-1.684;2023-09-19T06:01:06;15.20;80.60
52575;DHT22;38468;48.114;-1.684;2023-09-19T06:03:08;15.10;80.80
52575;DHT22;38468;48.114;-1.684;2023-09-19T06:05:08;15.20;80.70
52575;DHT22;38468;48.114;-1.684;2023-09-19T06:07:12;15.20;80.70
52575;DHT22;38468;48.114;-1.684;2023-09-19T06:09:12;15.10;80.80
52575;DHT22;38468;48.114;-1.684;2023-09-19T06:11:14;15.10;80.80
52575;DHT22;38468;48.114;-1.684;2023-09-19T06:13:15;15.10;80.90
52575;DHT22;38468;48.114;-1.684;2023-09-19T06:15:16;15.10;81.10
52575;DHT22;38468;48.114;-1.684;2023-09-19T06:17:19;15.20;80.90
52575;DHT22;38468;48.114;-1.684;2023-09-19T06:19:20;15.30;81.10
52575;DHT22;38468;48.114;-1.684;2023-09-19T06:21:23;15.30;80.80
52575;DHT22;38468;48.114;-1.684;2023-09-19T06:23:24;15.40;80.60
52575;DHT22;38468;48.114;-1.684;2023-09-19T06:25:26;15.40;80.60
52575;DHT22;38468;48.114;-1.684;2023-09-19T06:27:27;15.40;80.50
52575;DHT22;38468;48.114;-1.684;2023-09-19T06:29:29;15.40;80.40
52575;DHT22;38468;48.114;-1.684;2023-09-19T06:31:30;15.40;80.50
52575;DHT22;38468;48.114;-1.684;2023-09-19T06:33:31;15.50;80.50
52575;DHT22;38468;48.114;-1.684;2023-09-19T06:35:34;15.50;80.40
52575;DHT22;38468;48.114;-1.684;2023-09-19T06:37:35;15.50;80.30
52575;DHT22;38468;48.114;-1.684;2023-09-19T06:39:35;15.50;80.30
52575;DHT22;38468;48.114;-1.684;2023-09-19T06:41:39;15.60;79.80
52575;DHT22;38468;48.114;-1.684;2023-09-19T06:43:41;15.60;80.00
52575;DHT22;38468;48.114;-1.684;2023-09-19T06:45:42;15.60;79.90
52575;DHT22;38468;48.114;-1.684;2023-09-19T06:47:46;15.50;80.20
52575;DHT22;38468;48.114;-1.684;2023-09-19T06:49:49;15.70;79.60
52575;DHT22;38468;48.114;-1.684;2023-09-19T06:51:54;15.60;79.80
52575;DHT22;38468;48.114;-1.684;2023-09-19T06:53:55;15.70;79.80
52575;DHT22;38468;48.114;-1.684;2023-09-19T06:55:58;15.70;79.80
52575;DHT22;38468;48.114;-1.684;2023-09-19T06:57:58;15.70;79.80
52575;DHT22;38468;48.114;-1.684;2023-09-19T06:59:59;15.70;80.00
52575;DHT22;38468;48.114;-1.684;2023-09-19T07:02:01;15.70;79.70
52575;DHT22;38468;48.114;-1.684;2023-09-19T07:04:03;15.70;79.90
52575;DHT22;38468;48.114;-1.684;2023-09-19T07:06:03;15.80;79.80
52575;DHT22;38468;48.114;-1.684;2023-09-19T07:08:06;16.00;79.90
52575;DHT22;38468;48.114;-1.684;2023-09-19T07:10:07;16.20;79.80
52575;DHT22;38468;48.114;-1.684;2023-09-19T07:12:11;16.60;79.50
52575;DHT22;38468;48.114;-1.684;2023-09-19T07:14:12;17.00;78.40
52575;DHT22;38468;48.114;-1.684;2023-09-19T07:16:13;17.00;77.30
52575;DHT22;38468;48.114;-1.684;2023-09-19T07:18:27;16.80;76.50
52575;DHT22;38468;48.114;-1.684;2023-09-19T07:20:28;16.60;76.80
52575;DHT22;38468;48.114;-1.684;2023-09-19T07:22:32;16.60;77.10
52575;DHT22;38468;48.114;-1.684;2023-09-19T07:24:32;16.40;77.40
52575;DHT22;38468;48.114;-1.684;2023-09-19T07:26:33;16.10;78.20
52575;DHT22;38468;48.114;-1.684;2023-09-19T07:28:33;16.20;78.30
52575;DHT22;38468;48.114;-1.684;2023-09-19T07:30:38;16.00;78.60
52575;DHT22;38468;48.114;-1.684;2023-09-19T07:32:39;16.00;79.00
52575;DHT22;38468;48.114;-1.684;2023-09-19T07:34:41;16.20;79.00
52575;DHT22;38468;48.114;-1.684;2023-09-19T07:36:41;16.70;78.30
52575;DHT22;38468;48.114;-1.684;2023-09-19T07:38:42;16.70;77.30
52575;DHT22;38468;48.114;-1.684;2023-09-19T07:40:43;16.70;77.60
52575;DHT22;38468;48.114;-1.684;2023-09-19T07:42:44;16.50;77.80
52575;DHT22;38468;48.114;-1.684;2023-09-19T07:44:47;16.60;78.00
52575;DHT22;38468;48.114;-1.684;2023-09-19T07:46:52;16.70;78.10
52575;DHT22;38468;48.114;-1.684;2023-09-19T07:48:54;16.80;77.70
52575;DHT22;38468;48.114;-1.684;2023-09-19T07:50:54;16.80;77.80
52575;DHT22;38468;48.114;-1.684;2023-09-19T07:52:55;17.00;77.70
52575;DHT22;38468;48.114;-1.684;2023-09-19T07:54:56;17.00;77.50
52575;DHT22;38468;48.114;-1.684;2023-09-19T07:56:58;17.30;77.10
52575;DHT22;38468;48.114;-1.684;2023-09-19T07:59:00;17.60;77.20
52575;DHT22;38468;48.114;-1.684;2023-09-19T08:01:07;17.90;75.80
52575;DHT22;38468;48.114;-1.684;2023-09-19T08:03:08;18.00;75.10
52575;DHT22;38468;48.114;-1.684;2023-09-19T08:05:10;17.90;75.40
52575;DHT22;38468;48.114;-1.684;2023-09-19T08:07:12;17.50;75.80
52575;DHT22;38468;48.114;-1.684;2023-09-19T08:09:15;17.60;76.20
52575;DHT22;38468;48.114;-1.684;2023-09-19T08:11:21;17.50;76.30
52575;DHT22;38468;48.114;-1.684;2023-09-19T08:13:25;17.50;76.40
52575;DHT22;38468;48.114;-1.684;2023-09-19T08:15:26;17.20;77.10
52575;DHT22;38468;48.114;-1.684;2023-09-19T08:17:27;17.40;77.20
52575;DHT22;38468;48.114;-1.684;2023-09-19T08:19:28;17.50;77.00
52575;DHT22;38468;48.114;-1.684;2023-09-19T08:21:28;17.50;77.10
52575;DHT22;38468;48.114;-1.684;2023-09-19T08:23:30;17.60;76.80
52575;DHT22;38468;48.114;-1.684;2023-09-19T08:25:32;17.70;76.60
52575;DHT22;38468;48.114;-1.684;2023-09-19T08:27:33;17.70;76.20
52575;DHT22;38468;48.114;-1.684;2023-09-19T08:29:34;17.70;76.20
52575;DHT22;38468;48.114;-1.684;2023-09-19T08:31:35;17.60;76.50
52575;DHT22;38468;48.114;-1.684;2023-09-19T08:33:36;17.70;76.80
52575;DHT22;38468;48.114;-1.684;2023-09-19T08:35:38;17.70;76.80
52575;DHT22;38468;48.114;-1.684;2023-09-19T08:37:40;17.70;76.90
52575;DHT22;38468;48.114;-1.684;2023-09-19T08:39:40;17.80;76.50
52575;DHT22;38468;48.114;-1.684;2023-09-19T08:41:41;17.90;76.20
52575;DHT22;38468;48.114;-1.684;2023-09-19T08:43:41;17.90;76.10
52575;DHT22;38468;48.114;-1.684;2023-09-19T08:45:43;17.90;76.50
52575;DHT22;38468;48.114;-1.684;2023-09-19T08:47:47;18.00;75.90
52575;DHT22;38468;48.114;-1.684;2023-09-19T08:50:04;18.10;75.90
52575;DHT22;38468;48.114;-1.684;2023-09-19T08:52:19;18.10;75.40
52575;DHT22;38468;48.114;-1.684;2023-09-19T08:54:35;18.30;75.60
52575;DHT22;38468;48.114;-1.684;2023-09-19T08:56:39;18.40;75.00
52575;DHT22;38468;48.114;-1.684;2023-09-19T08:58:59;18.50;74.70
52575;DHT22;38468;48.114;-1.684;2023-09-19T09:01:00;18.60;75.10
52575;DHT22;38468;48.114;-1.684;2023-09-19T09:03:02;18.90;74.50
52575;DHT22;38468;48.114;-1.684;2023-09-19T09:05:04;18.90;74.20
52575;DHT22;38468;48.114;-1.684;2023-09-19T09:07:13;19.10;73.40
52575;DHT22;38468;48.114;-1.684;2023-09-19T09:09:15;19.20;72.80
52575;DHT22;38468;48.114;-1.684;2023-09-19T09:11:16;19.20;73.00
52575;DHT22;38468;48.114;-1.684;2023-09-19T09:13:17;19.50;73.00
52575;DHT22;38468;48.114;-1.684;2023-09-19T09:15:22;19.70;71.00
52575;DHT22;38468;48.114;-1.684;2023-09-19T09:17:26;19.70;70.80
52575;DHT22;38468;48.114;-1.684;2023-09-19T09:19:27;20.20;70.40
52575;DHT22;38468;48.114;-1.684;2023-09-19T09:21:28;20.10;69.20
52575;DHT22;38468;48.114;-1.684;2023-09-19T09:23:28;20.10;69.30
52575;DHT22;38468;48.114;-1.684;2023-09-19T09:25:56;20.20;69.10
52575;DHT22;38468;48.114;-1.684;2023-09-19T09:28:01;20.00;69.00
52575;DHT22;38468;48.114;-1.684;2023-09-19T09:30:02;20.10;68.40
52575;DHT22;38468;48.114;-1.684;2023-09-19T09:32:18;20.40;68.10
52575;DHT22;38468;48.114;-1.684;2023-09-19T09:34:20;20.10;67.60
52575;DHT22;38468;48.114;-1.684;2023-09-19T09:36:35;20.10;68.30
52575;DHT22;38468;48.114;-1.684;2023-09-19T09:40:50;20.00;68.40
52575;DHT22;38468;48.114;-1.684;2023-09-19T09:42:54;20.00;69.20
52575;DHT22;38468;48.114;-1.684;2023-09-19T09:47:50;19.80;68.50
52575;DHT22;38468;48.114;-1.684;2023-09-19T09:49:56;19.50;68.70
52575;DHT22;38468;48.114;-1.684;2023-09-19T09:52:07;19.50;69.70
52575;DHT22;38468;48.114;-1.684;2023-09-19T09:54:28;19.90;69.70
52575;DHT22;38468;48.114;-1.684;2023-09-19T09:56:55;20.00;69.30
52575;DHT22;38468;48.114;-1.684;2023-09-19T09:58:59;20.20;68.80
52575;DHT22;38468;48.114;-1.684;2023-09-19T10:01:00;20.20;67.90
52575;DHT22;38468;48.114;-1.684;2023-09-19T10:03:19;20.30;68.00
52575;DHT22;38468;48.114;-1.684;2023-09-19T10:05:23;20.30;67.60
52575;DHT22;38468;48.114;-1.684;2023-09-19T10:07:31;20.50;67.60
52575;DHT22;38468;48.114;-1.684;2023-09-19T10:09:48;20.50;66.30
52575;DHT22;38468;48.114;-1.684;2023-09-19T10:12:07;20.40;66.40
52575;DHT22;38468;48.114;-1.684;2023-09-19T10:14:13;20.50;66.40
52575;DHT22;38468;48.114;-1.684;2023-09-19T10:16:16;20.80;66.40
52575;DHT22;38468;48.114;-1.684;2023-09-19T10:18:21;21.00;64.70
52575;DHT22;38468;48.114;-1.684;2023-09-19T10:20:23;21.10;64.80
52575;DHT22;38468;48.114;-1.684;2023-09-19T10:22:34;21.30;64.00
52575;DHT22;38468;48.114;-1.684;2023-09-19T10:24:36;21.20;62.90
52575;DHT22;38468;48.114;-1.684;2023-09-19T10:26:39;21.50;62.00
52575;DHT22;38468;48.114;-1.684;2023-09-19T10:28:47;21.20;61.70
52575;DHT22;38468;48.114;-1.684;2023-09-19T10:30:50;21.10;61.60
52575;DHT22;38468;48.114;-1.684;2023-09-19T10:32:56;21.40;61.90
52575;DHT22;38468;48.114;-1.684;2023-09-19T10:34:58;21.50;61.70
52575;DHT22;38468;48.114;-1.684;2023-09-19T10:37:00;21.60;60.50
52575;DHT22;38468;48.114;-1.684;2023-09-19T10:39:06;21.60;60.60
52575;DHT22;38468;48.114;-1.684;2023-09-19T10:41:10;21.40;59.60
52575;DHT22;38468;48.114;-1.684;2023-09-19T10:43:18;21.70;59.00
52575;DHT22;38468;48.114;-1.684;2023-09-19T10:45:19;21.80;57.80
52575;DHT22;38468;48.114;-1.684;2023-09-19T10:47:21;21.90;58.10
52575;DHT22;38468;48.114;-1.684;2023-09-19T10:49:24;22.00;58.00
52575;DHT22;38468;48.114;-1.684;2023-09-19T10:51:29;21.60;58.60
52575;DHT22;38468;48.114;-1.684;2023-09-19T10:53:51;21.60;58.20
52575;DHT22;38468;48.114;-1.684;2023-09-19T10:55:59;21.80;57.70
52575;DHT22;38468;48.114;-1.684;2023-09-19T10:58:05;21.60;58.60
52575;DHT22;38468;48.114;-1.684;2023-09-19T11:00:15;21.60;58.40
52575;DHT22;38468;48.114;-1.684;2023-09-19T11:02:27;21.70;58.40
52575;DHT22;38468;48.114;-1.684;2023-09-19T11:04:34;21.60;58.20
52575;DHT22;38468;48.114;-1.684;2023-09-19T11:06:36;21.60;58.60
52575;DHT22;38468;48.114;-1.684;2023-09-19T11:10:56;21.60;58.70
52575;DHT22;38468;48.114;-1.684;2023-09-19T11:13:31;21.50;59.10
52575;DHT22;38468;48.114;-1.684;2023-09-19T11:18:00;21.80;59.00
52575;DHT22;38468;48.114;-1.684;2023-09-19T11:22:24;22.20;57.40
52575;DHT22;38468;48.114;-1.684;2023-09-19T11:24:30;22.40;56.90
52575;DHT22;38468;48.114;-1.684;2023-09-19T11:26:41;22.40;56.00
52575;DHT22;38468;48.114;-1.684;2023-09-19T11:28:47;22.50;55.90
52575;DHT22;38468;48.114;-1.684;2023-09-19T11:30:50;22.80;55.30
52575;DHT22;38468;48.114;-1.684;2023-09-19T11:33:22;22.40;55.10
52575;DHT22;38468;48.114;-1.684;2023-09-19T11:40:47;22.80;54.90
52575;DHT22;38468;48.114;-1.684;2023-09-19T11:43:28;23.00;55.00
52575;DHT22;38468;48.114;-1.684;2023-09-19T11:47:50;23.00;54.20
52575;DHT22;38468;48.114;-1.684;2023-09-19T11:49:52;23.00;54.30
52575;DHT22;38468;48.114;-1.684;2023-09-19T11:51:53;23.00;52.90
52575;DHT22;38468;48.114;-1.684;2023-09-19T11:53:58;22.90;53.30
52575;DHT22;38468;48.114;-1.684;2023-09-19T11:56:06;23.10;52.90
52575;DHT22;38468;48.114;-1.684;2023-09-19T11:58:08;23.00;51.90
52575;DHT22;38468;48.114;-1.684;2023-09-19T12:00:17;23.00;52.00
52575;DHT22;38468;48.114;-1.684;2023-09-19T12:02:37;22.80;52.60
52575;DHT22;38468;48.114;-1.684;2023-09-19T12:04:41;23.10;53.00
52575;DHT22;38468;48.114;-1.684;2023-09-19T12:06:56;23.20;51.90
52575;DHT22;38468;48.114;-1.684;2023-09-19T12:08:57;23.10;51.80
52575;DHT22;38468;48.114;-1.684;2023-09-19T12:10:59;22.90;51.90
52575;DHT22;38468;48.114;-1.684;2023-09-19T12:13:00;22.50;52.60
52575;DHT22;38468;48.114;-1.684;2023-09-19T12:15:03;22.60;53.10
52575;DHT22;38468;48.114;-1.684;2023-09-19T12:17:04;22.50;52.70
52575;DHT22;38468;48.114;-1.684;2023-09-19T12:19:19;22.50;52.50
52575;DHT22;38468;48.114;-1.684;2023-09-19T12:21:29;22.50;52.10
52575;DHT22;38468;48.114;-1.684;2023-09-19T12:23:32;22.50;52.50
52575;DHT22;38468;48.114;-1.684;2023-09-19T12:25:43;22.50;53.40
52575;DHT22;38468;48.114;-1.684;2023-09-19T12:27:49;22.50;53.60
52575;DHT22;38468;48.114;-1.684;2023-09-19T12:29:53;22.40;54.20
52575;DHT22;38468;48.114;-1.684;2023-09-19T12:32:02;22.40;53.80
52575;DHT22;38468;48.114;-1.684;2023-09-19T12:34:04;22.30;53.50
52575;DHT22;38468;48.114;-1.684;2023-09-19T12:36:22;22.20;53.70
52575;DHT22;38468;48.114;-1.684;2023-09-19T12:38:29;21.90;54.80
52575;DHT22;38468;48.114;-1.684;2023-09-19T12:40:35;22.00;54.90
52575;DHT22;38468;48.114;-1.684;2023-09-19T12:42:38;22.10;54.90
52575;DHT22;38468;48.114;-1.684;2023-09-19T12:44:44;22.10;54.90
52575;DHT22;38468;48.114;-1.684;2023-09-19T12:46:45;22.00;54.90
52575;DHT22;38468;48.114;-1.684;2023-09-19T12:48:46;22.00;55.40
52575;DHT22;38468;48.114;-1.684;2023-09-19T12:53:05;21.90;55.70
52575;DHT22;38468;48.114;-1.684;2023-09-19T12:55:06;22.00;56.20
52575;DHT22;38468;48.114;-1.684;2023-09-19T12:57:24;22.00;55.90
52575;DHT22;38468;48.114;-1.684;2023-09-19T12:59:29;22.00;56.20
52575;DHT22;38468;48.114;-1.684;2023-09-19T13:01:33;22.00;56.10
52575;DHT22;38468;48.114;-1.684;2023-09-19T13:03:40;22.00;55.60
52575;DHT22;38468;48.114;-1.684;2023-09-19T13:06:07;22.00;55.60
52575;DHT22;38468;48.114;-1.684;2023-09-19T13:08:25;21.90;55.80
52575;DHT22;38468;48.114;-1.684;2023-09-19T13:10:33;21.90;55.70
52575;DHT22;38468;48.114;-1.684;2023-09-19T13:12:35;22.00;55.30
52575;DHT22;38468;48.114;-1.684;2023-09-19T13:14:37;21.90;55.40
52575;DHT22;38468;48.114;-1.684;2023-09-19T13:17:01;22.00;55.40
52575;DHT22;38468;48.114;-1.684;2023-09-19T13:19:04;21.90;55.20
52575;DHT22;38468;48.114;-1.684;2023-09-19T13:21:09;21.80;55.80
52575;DHT22;38468;48.114;-1.684;2023-09-19T13:23:27;21.60;56.20
52575;DHT22;38468;48.114;-1.684;2023-09-19T13:25:28;21.50;56.50
52575;DHT22;38468;48.114;-1.684;2023-09-19T13:27:30;21.80;56.20
52575;DHT22;38468;48.114;-1.684;2023-09-19T13:29:30;21.80;56.20